Погода Фу-Крадунгна 2 недели

Дансай, Таиланд

02 - 15 марта
  • 02марта
    Сегодня
    +20°
    +31°
    Практически безоблачно
    ВремяПогодаТемператураВлажностьДавлениеВетер, м/сВероятность осадков
    01:00Ясно и безоблачно+25°C63 %739 мм2.4 м/с2 %
    04:00Ясно и безоблачно+21°C75 %739 мм1.4 м/с6 %
    07:00Ясно и безоблачно+20°C75 %740 мм1.5 м/с3 %
    10:00Практически безоблачно+25°C59 %742 мм1.5 м/с3 %
    13:00Практически безоблачно+29°C52 %740 мм2.0 м/с4 %
    16:00Ясно и безоблачно+31°C50 %738 мм1.8 м/с7 %
    19:00Практически безоблачно+27°C64 %738 мм1.0 м/с2 %
    22:00Ясно и безоблачно+25°C66 %739 мм0.8 м/с2 %
  • 03марта
    Воскресенье
    +22°
    +33°
    Практически безоблачно
    ВремяПогодаТемператураВлажностьДавлениеВетер, м/сВероятность осадков
    01:00Ясно и безоблачно+24°C70 %739 мм1.3 м/с2 %
    04:00Ясно и безоблачно+22°C73 %739 мм0.7 м/с2 %
    07:00Ясно и безоблачно+21°C79 %740 мм0.3 м/с2 %
    10:00Ясно и безоблачно+27°C56 %741 мм1.1 м/с2 %
    13:00Практически безоблачно+32°C46 %739 мм1.9 м/с8 %
    16:00Небольшая облачность+32°C45 %736 мм2.0 м/с17 %
    19:00Ясно и безоблачно+29°C56 %736 мм1.5 м/с4 %
    22:00Ясно и безоблачно+26°C67 %738 мм1.4 м/с2 %
  • 04марта
    Понедельник
    +21°
    +37°
    Ясно и безоблачно
    ВремяПогодаТемператураВлажностьДавлениеВетер, м/сВероятность осадков
    01:00Ясно и безоблачно+24°C71 %737 мм1.3 м/с2 %
    04:00Ясно и безоблачно+24°C74 %736 мм1.4 м/с2 %
    07:00Ясно и безоблачно+23°C80 %737 мм1.3 м/с2 %
    10:00Ясно и безоблачно+31°C52 %739 мм1.5 м/с2 %
    13:00Ясно и безоблачно+36°C30 %736 мм2.6 м/с2 %
    16:00Ясно и безоблачно+36°C28 %734 мм2.6 м/с2 %
    19:00Ясно и безоблачно+29°C44 %734 мм1.9 м/с2 %
    22:00Ясно и безоблачно+26°C58 %736 мм1.4 м/с2 %
  • 05марта
    Вторник
    +20°
    +37°
    Ясно и безоблачно
    ВремяПогодаТемператураВлажностьДавлениеВетер, м/сВероятность осадков
    01:00Ясно и безоблачно+24°C60 %735 мм1.4 м/с2 %
    04:00Ясно и безоблачно+23°C62 %735 мм1.9 м/с2 %
    07:00Ясно и безоблачно+22°C89 %736 мм1.9 м/с2 %
    10:00Ясно и безоблачно+32°C52 %738 мм0.9 м/с2 %
    13:00Ясно и безоблачно+37°C26 %736 мм1.1 м/с2 %
    16:00Ясно и безоблачно+37°C23 %733 мм2.2 м/с2 %
    19:00Ясно и безоблачно+29°C40 %734 мм1.8 м/с2 %
    22:00Ясно и безоблачно+26°C54 %735 мм1.5 м/с2 %
  • 06марта
    Среда
    +21°
    +38°
    Ясно и безоблачно
    ВремяПогодаТемператураВлажностьДавлениеВетер, м/сВероятность осадков
    01:00Ясно и безоблачно+23°C60 %734 мм1.1 м/с2 %
    04:00Ясно и безоблачно+22°C60 %734 мм1.6 м/с2 %
    07:00Ясно и безоблачно+21°C57 %735 мм1.6 м/с2 %
    10:00Ясно и безоблачно+32°C35 %737 мм0.6 м/с2 %
    13:00Ясно и безоблачно+37°C23 %735 мм1.2 м/с2 %
    16:00Небольшая облачность+37°C22 %733 мм2.4 м/с2 %
    19:00Ясно и безоблачно+34°C27 %734 мм0.2 м/с2 %
    22:00Ясно и безоблачно+27°C40 %735 мм1.8 м/с2 %
Мы используем cookies
Соглашаюсь